createdAt,value
2022-12-15T00:01:08.735Z,1.33
2022-12-15T00:04:30.218Z,1.40
2022-12-15T00:07:52.034Z,1.46
2022-12-15T00:11:13.361Z,1.50
2022-12-15T00:14:34.590Z,1.34
2022-12-15T00:17:55.687Z,1.30
2022-12-15T00:21:17.902Z,1.23
2022-12-15T00:24:39.329Z,1.26
2022-12-15T00:28:00.698Z,1.31
2022-12-15T00:31:21.926Z,1.31
2022-12-15T00:34:43.217Z,1.36
2022-12-15T00:38:04.549Z,1.34
2022-12-15T00:41:07.291Z,1.33
2022-12-15T00:44:11.624Z,1.24
2022-12-15T00:47:16.142Z,1.28
2022-12-15T00:50:37.313Z,1.22
2022-12-15T00:53:59.467Z,1.12
2022-12-15T00:57:20.648Z,1.09
2022-12-15T01:00:42.912Z,1.24
2022-12-15T01:04:04.380Z,1.37
2022-12-15T01:07:25.778Z,1.31
2022-12-15T01:10:46.972Z,1.24
2022-12-15T01:14:08.256Z,1.24
2022-12-15T01:17:30.445Z,1.25
2022-12-15T01:20:34.760Z,1.12
2022-12-15T01:23:38.694Z,1.17
2022-12-15T01:26:41.821Z,1.23
2022-12-15T01:29:44.793Z,1.15
2022-12-15T01:32:47.536Z,1.18
2022-12-15T01:36:01.026Z,1.29
2022-12-15T01:39:03.922Z,1.25
2022-12-15T01:42:08.573Z,1.28
2022-12-15T01:45:29.435Z,1.48
2022-12-15T01:48:44.151Z,1.47
2022-12-15T01:51:50.719Z,1.56
2022-12-15T01:54:58.097Z,1.66
2022-12-15T01:58:07.195Z,1.74
2022-12-15T02:01:10.816Z,1.90
2022-12-15T02:04:15.008Z,1.86
2022-12-15T02:07:18.783Z,1.65
2022-12-15T02:10:26.077Z,1.66
2022-12-15T02:13:40.506Z,1.74
2022-12-15T02:16:59.050Z,1.82
2022-12-15T02:20:01.700Z,1.78
2022-12-15T02:23:35.603Z,1.79
2022-12-15T02:26:44.241Z,1.73
2022-12-15T02:29:47.314Z,1.76
2022-12-15T02:33:08.753Z,1.65
2022-12-15T02:36:35.521Z,1.98
2022-12-15T02:39:38.467Z,1.92
2022-12-15T02:42:46.216Z,1.90
2022-12-15T02:46:17.172Z,2.02
2022-12-15T02:49:45.845Z,1.95
2022-12-15T02:53:08.003Z,1.88
2022-12-15T02:56:28.931Z,2.00
2022-12-15T02:59:42.490Z,2.12
2022-12-15T03:02:50.619Z,2.06
2022-12-15T03:05:55.320Z,2.06
2022-12-15T03:08:58.106Z,2.07
2022-12-15T03:12:01.334Z,2.07
2022-12-15T03:15:04.932Z,2.12
2022-12-15T03:18:07.728Z,2.08
2022-12-15T03:21:11.234Z,2.15
2022-12-15T03:24:13.983Z,2.05
2022-12-15T03:27:16.833Z,2.32
2022-12-15T03:30:19.700Z,2.23
2022-12-15T03:33:22.843Z,2.14
2022-12-15T03:36:25.746Z,2.16
2022-12-15T03:39:28.545Z,2.03
2022-12-15T03:42:49.612Z,2.13
2022-12-15T03:45:52.438Z,2.11
2022-12-15T03:48:55.501Z,2.13
2022-12-15T03:51:58.327Z,2.16
2022-12-15T03:55:01.093Z,2.10
2022-12-15T03:58:03.972Z,2.21
2022-12-15T04:01:23.547Z,2.22
2022-12-15T04:04:26.521Z,2.25
2022-12-15T04:07:29.590Z,2.31
2022-12-15T04:10:35.200Z,2.28
2022-12-15T04:13:38.225Z,2.20
2022-12-15T04:16:41.051Z,2.26
2022-12-15T04:20:02.397Z,2.33
2022-12-15T04:23:08.091Z,2.26
2022-12-15T04:26:29.394Z,2.24
2022-12-15T04:29:50.561Z,2.31
2022-12-15T04:33:13.035Z,2.19
2022-12-15T04:36:35.317Z,2.17
2022-12-15T04:39:59.596Z,2.16
2022-12-15T04:43:20.974Z,2.14
2022-12-15T04:46:42.177Z,2.08
2022-12-15T04:50:03.658Z,1.88
2022-12-15T04:53:36.695Z,2.08
2022-12-15T04:56:57.981Z,2.09
2022-12-15T05:00:19.338Z,2.23
2022-12-15T05:03:41.571Z,2.23
2022-12-15T05:07:05.706Z,2.11
2022-12-15T05:10:27.284Z,2.09
2022-12-15T05:13:48.447Z,2.10
2022-12-15T05:17:09.758Z,2.15
2022-12-15T05:20:31.435Z,2.17
2022-12-15T05:23:52.694Z,2.20
2022-12-15T05:27:14.042Z,2.14
2022-12-15T05:30:35.443Z,2.08
2022-12-15T05:33:38.306Z,2.11
2022-12-15T05:36:41.142Z,2.24
2022-12-15T05:39:43.901Z,2.22
2022-12-15T05:42:50.162Z,2.29
2022-12-15T05:45:53.299Z,2.22
2022-12-15T05:48:56.152Z,2.25
2022-12-15T05:51:58.876Z,2.34
2022-12-15T05:55:01.675Z,2.25
2022-12-15T05:58:04.500Z,2.14
2022-12-15T06:01:10.282Z,2.14
2022-12-15T06:04:14.117Z,2.14
2022-12-15T06:07:17.059Z,2.17
2022-12-15T06:10:19.957Z,2.16
2022-12-15T06:13:27.107Z,2.16
2022-12-15T06:16:30.007Z,2.21
2022-12-15T06:19:32.831Z,2.30
2022-12-15T06:22:35.646Z,2.26
2022-12-15T06:25:38.554Z,2.18
2022-12-15T06:28:42.208Z,2.26
2022-12-15T06:31:45.020Z,2.12
2022-12-15T06:34:49.269Z,1.98
2022-12-15T06:37:51.984Z,1.81
2022-12-15T06:41:00.171Z,1.79
2022-12-15T06:44:03.766Z,1.91
2022-12-15T06:47:08.463Z,2.09
2022-12-15T06:50:12.263Z,2.05
2022-12-15T06:53:18.519Z,2.07
2022-12-15T06:56:30.632Z,2.16
2022-12-15T06:59:36.326Z,2.21
2022-12-15T07:02:40.004Z,2.03
2022-12-15T07:05:44.704Z,2.10
2022-12-15T07:08:53.111Z,2.02
2022-12-15T07:11:56.254Z,2.05
2022-12-15T07:15:00.838Z,2.01
2022-12-15T07:18:06.701Z,2.20
2022-12-15T07:21:16.053Z,2.18
2022-12-15T07:24:19.204Z,2.15
2022-12-15T07:27:22.011Z,2.29
2022-12-15T07:30:26.377Z,2.38
2022-12-15T07:33:30.205Z,2.27
2022-12-15T07:36:33.512Z,2.27
2022-12-15T07:39:36.478Z,2.32
2022-12-15T07:42:39.673Z,2.62
2022-12-15T07:45:46.774Z,2.52
2022-12-15T07:48:53.602Z,2.65
2022-12-15T07:51:58.922Z,2.68
2022-12-15T07:55:01.913Z,2.74
2022-12-15T07:58:06.518Z,2.68
2022-12-15T08:01:12.673Z,2.63
2022-12-15T08:04:15.958Z,2.76
2022-12-15T08:07:18.891Z,2.72
2022-12-15T08:10:22.859Z,2.83
2022-12-15T08:14:00.741Z,2.86
2022-12-15T08:16:49.715Z,2.75
2022-12-15T08:19:58.522Z,2.95
2022-12-15T08:23:01.871Z,2.69
2022-12-15T08:26:10.725Z,2.46
2022-12-15T08:29:49.553Z,2.54
2022-12-15T08:32:37.891Z,2.57
2022-12-15T08:35:56.942Z,2.57
2022-12-15T08:39:01.968Z,2.83
2022-12-15T08:42:06.440Z,2.91
2022-12-15T08:45:13.572Z,3.08
2022-12-15T08:48:17.538Z,3.20
2022-12-15T08:56:12.798Z,3.07
2022-12-15T08:59:16.034Z,3.11
2022-12-15T09:02:21.571Z,3.30
2022-12-15T09:05:27.888Z,3.34
2022-12-15T09:08:32.294Z,3.47
2022-12-15T09:11:35.752Z,3.62
2022-12-15T09:14:41.772Z,3.65
2022-12-15T09:17:47.195Z,3.32
2022-12-15T09:20:51.366Z,3.42
2022-12-15T09:23:58.615Z,3.14
2022-12-15T09:27:02.109Z,3.39
2022-12-15T09:30:05.536Z,3.57
2022-12-15T09:33:11.846Z,3.62
2022-12-15T09:36:17.641Z,3.68
2022-12-15T09:39:21.870Z,3.43
2022-12-15T09:42:31.074Z,3.44
2022-12-15T09:45:44.854Z,3.54
2022-12-15T09:48:50.332Z,3.64
2022-12-15T09:52:08.780Z,3.83
2022-12-15T09:55:33.523Z,3.84
2022-12-15T09:58:50.616Z,3.74
2022-12-15T10:02:18.984Z,3.92
2022-12-15T10:09:26.857Z,3.81
2022-12-15T10:12:37.012Z,3.91
2022-12-15T10:15:50.686Z,3.93
2022-12-15T10:19:02.151Z,3.81
2022-12-15T10:22:05.565Z,3.99
2022-12-15T10:25:32.342Z,3.73
2022-12-15T10:28:41.099Z,4.05
2022-12-15T10:31:59.667Z,3.99
2022-12-15T10:35:08.618Z,3.90
2022-12-15T10:38:33.771Z,3.83
2022-12-15T10:41:36.606Z,3.86
2022-12-15T10:44:42.899Z,3.91
2022-12-15T10:47:59.312Z,4.27
2022-12-15T10:51:27.088Z,4.36
2022-12-15T10:54:37.491Z,4.53
2022-12-15T10:58:01.553Z,4.68
2022-12-15T11:01:16.729Z,4.79
2022-12-15T11:04:31.884Z,4.85
2022-12-15T11:07:39.699Z,4.59
2022-12-15T11:11:16.555Z,4.91
2022-12-15T11:14:29.447Z,5.08
2022-12-15T11:17:42.930Z,4.90
2022-12-15T11:21:11.871Z,4.89
2022-12-15T11:25:08.812Z,4.65
2022-12-15T11:28:18.731Z,5.10
2022-12-15T11:31:33.474Z,5.61
2022-12-15T11:34:39.801Z,5.98
2022-12-15T11:37:52.842Z,5.78
2022-12-15T11:40:58.882Z,5.74
2022-12-15T11:44:17.060Z,5.94
2022-12-15T11:47:46.566Z,6.54
2022-12-15T11:51:04.099Z,6.16
2022-12-15T11:54:39.319Z,5.48
2022-12-15T11:58:03.839Z,6.12
2022-12-15T12:01:37.699Z,6.41
2022-12-15T12:05:03.539Z,5.72
2022-12-15T12:08:29.267Z,5.53
2022-12-15T12:12:09.323Z,5.10
2022-12-15T12:15:16.001Z,5.43
2022-12-15T12:18:26.190Z,5.78
2022-12-15T12:21:37.176Z,5.67
2022-12-15T12:24:50.732Z,5.53
2022-12-15T12:28:14.331Z,5.45
2022-12-15T12:32:04.140Z,5.49
2022-12-15T12:35:38.357Z,5.15
2022-12-15T12:38:56.331Z,5.43
2022-12-15T12:42:13.551Z,5.31
2022-12-15T12:45:17.144Z,5.10
2022-12-15T12:48:26.244Z,5.32
2022-12-15T12:51:32.077Z,5.25
2022-12-15T12:54:37.074Z,5.12
2022-12-15T12:57:41.709Z,4.91
2022-12-15T13:01:20.018Z,5.10
2022-12-15T13:04:29.696Z,5.34
2022-12-15T13:07:36.489Z,5.51
2022-12-15T13:10:42.642Z,5.44
2022-12-15T13:13:51.262Z,5.39
2022-12-15T13:17:25.957Z,5.20
2022-12-15T13:20:32.667Z,5.17
2022-12-15T13:23:42.048Z,5.34
2022-12-15T13:26:48.670Z,5.00
2022-12-15T13:29:58.549Z,5.04
2022-12-15T13:33:17.839Z,5.04
2022-12-15T13:36:42.440Z,4.92
2022-12-15T13:39:54.873Z,4.74
2022-12-15T13:43:04.647Z,4.60
2022-12-15T13:46:23.348Z,4.90
2022-12-15T13:49:34.587Z,4.80
2022-12-15T13:56:13.346Z,4.86
2022-12-15T13:59:19.209Z,4.90
2022-12-15T14:02:25.204Z,4.89
2022-12-15T14:05:28.150Z,5.00
2022-12-15T14:08:31.546Z,5.12
2022-12-15T14:11:52.428Z,5.15
2022-12-15T14:14:56.276Z,5.22
2022-12-15T14:18:01.680Z,5.13
2022-12-15T14:21:20.310Z,5.00
2022-12-15T14:24:39.618Z,4.77
2022-12-15T14:27:53.460Z,4.92
2022-12-15T14:31:04.569Z,4.94
2022-12-15T14:34:12.916Z,4.83
2022-12-15T14:37:21.205Z,4.68
2022-12-15T14:40:28.895Z,4.60
2022-12-15T14:43:37.030Z,4.54
2022-12-15T14:46:45.360Z,4.59
2022-12-15T14:49:48.959Z,4.55
2022-12-15T14:53:05.490Z,4.57
2022-12-15T14:56:27.565Z,4.57
2022-12-15T14:59:46.041Z,4.55
2022-12-15T15:02:48.897Z,4.54
2022-12-15T15:03:11.248Z,3.75
2022-12-15T15:06:02.017Z,4.53
2022-12-15T15:09:20.965Z,4.56
2022-12-15T15:12:27.282Z,4.57
2022-12-15T15:15:30.046Z,4.71
2022-12-15T15:18:33.575Z,4.80
2022-12-15T15:21:37.453Z,4.85
2022-12-15T15:24:40.182Z,4.83
2022-12-15T15:27:42.957Z,4.76
2022-12-15T15:30:50.013Z,4.64
2022-12-15T15:33:54.861Z,4.78
2022-12-15T15:36:57.681Z,4.79
2022-12-15T15:40:00.682Z,4.93
2022-12-15T15:43:11.089Z,4.81
2022-12-15T15:46:20.866Z,4.79
2022-12-15T15:49:24.768Z,4.87
2022-12-15T15:52:30.002Z,4.84
2022-12-15T15:55:39.579Z,4.77
2022-12-15T15:58:43.949Z,4.62
2022-12-15T16:01:52.421Z,4.63
2022-12-15T16:04:55.398Z,4.81
2022-12-15T16:07:59.554Z,4.92
2022-12-15T16:11:02.591Z,4.88
2022-12-15T16:14:11.303Z,4.75
2022-12-15T16:17:16.278Z,4.67
2022-12-15T16:20:21.465Z,4.82
2022-12-15T16:23:27.958Z,4.85
2022-12-15T16:26:32.514Z,5.06
2022-12-15T16:29:35.332Z,5.16
2022-12-15T16:32:38.104Z,5.08
2022-12-15T16:35:42.761Z,4.98
2022-12-15T16:38:45.632Z,4.98
2022-12-15T16:41:48.589Z,4.78
2022-12-15T16:44:51.484Z,4.73
2022-12-15T16:47:55.794Z,4.79
2022-12-15T16:50:59.372Z,4.69
2022-12-15T16:54:02.130Z,4.73
2022-12-15T16:57:06.880Z,4.83
2022-12-15T17:00:22.878Z,4.94
2022-12-15T17:03:28.592Z,4.98
2022-12-15T17:06:31.660Z,4.77
2022-12-15T17:09:38.132Z,4.60
2022-12-15T17:12:41.238Z,4.51
2022-12-15T17:15:44.069Z,4.46
2022-12-15T17:18:47.187Z,4.44
2022-12-15T17:21:54.102Z,4.49
2022-12-15T17:24:56.885Z,4.52
2022-12-15T17:28:00.681Z,4.54
2022-12-15T17:31:04.135Z,4.45
2022-12-15T17:34:19.163Z,4.47
2022-12-15T17:37:22.000Z,4.43
2022-12-15T17:40:24.737Z,4.46
2022-12-15T17:43:35.156Z,4.56
2022-12-15T17:46:38.718Z,4.55
2022-12-15T17:49:42.120Z,4.44
2022-12-15T17:52:47.989Z,4.42
2022-12-15T17:55:52.925Z,4.44
2022-12-15T17:58:56.456Z,4.49
2022-12-15T18:01:59.636Z,4.43
2022-12-15T18:05:02.643Z,4.48
2022-12-15T18:08:18.222Z,4.51
2022-12-15T18:11:21.081Z,4.53
2022-12-15T18:14:24.150Z,4.57
2022-12-15T18:17:26.972Z,4.46
2022-12-15T18:20:31.200Z,4.43
2022-12-15T18:23:35.038Z,4.43
2022-12-15T18:26:38.404Z,4.56
2022-12-15T18:29:41.217Z,4.57
2022-12-15T18:32:45.815Z,4.51
2022-12-15T18:35:50.660Z,4.49
2022-12-15T18:38:53.686Z,4.39
2022-12-15T18:41:57.895Z,4.47
2022-12-15T18:45:02.416Z,4.43
2022-12-15T18:48:27.205Z,4.49
2022-12-15T18:51:31.126Z,4.65
2022-12-15T18:54:34.076Z,4.74
2022-12-15T18:57:38.003Z,4.76
2022-12-15T19:00:41.050Z,4.67
2022-12-15T19:03:44.470Z,4.54
2022-12-15T19:06:47.489Z,4.48
2022-12-15T19:09:50.890Z,4.46
2022-12-15T19:12:58.384Z,4.46
2022-12-15T19:16:03.251Z,4.44
2022-12-15T19:19:24.467Z,4.59
2022-12-15T19:22:27.362Z,4.59
2022-12-15T19:25:31.583Z,4.48
2022-12-15T19:28:34.428Z,4.54
2022-12-15T19:31:37.250Z,4.50
2022-12-15T19:34:40.218Z,4.52
2022-12-15T19:37:45.630Z,4.46
2022-12-15T19:40:49.225Z,4.42
2022-12-15T19:43:53.241Z,4.33
2022-12-15T19:46:56.618Z,4.42
2022-12-15T19:49:59.651Z,4.41
2022-12-15T19:53:27.899Z,4.39
2022-12-15T19:56:31.335Z,4.39
2022-12-15T19:59:34.068Z,4.35
2022-12-15T20:02:37.531Z,4.39
2022-12-15T20:05:40.793Z,4.49
2022-12-15T20:08:46.488Z,4.45
2022-12-15T20:11:49.624Z,4.66
2022-12-15T20:14:52.705Z,4.73
2022-12-15T20:17:58.517Z,4.58
2022-12-15T20:21:01.931Z,4.45
2022-12-15T20:24:09.051Z,4.53
2022-12-15T20:27:17.361Z,4.43
2022-12-15T20:30:27.296Z,4.37
2022-12-15T20:33:30.455Z,4.30
2022-12-15T20:36:33.845Z,4.29
2022-12-15T20:39:36.660Z,4.27
2022-12-15T20:42:39.914Z,4.18
2022-12-15T20:45:43.563Z,4.21
2022-12-15T20:48:47.702Z,4.24
2022-12-15T20:51:51.068Z,4.12
2022-12-15T20:54:54.748Z,4.09
2022-12-15T20:57:57.583Z,4.07
2022-12-15T21:01:00.632Z,4.05
2022-12-15T21:04:19.776Z,4.03
2022-12-15T21:07:22.474Z,4.02
2022-12-15T21:10:26.967Z,4.03
2022-12-15T21:13:33.126Z,4.07
2022-12-15T21:16:36.326Z,4.12
2022-12-15T21:19:39.111Z,4.07
2022-12-15T21:22:42.684Z,4.05
2022-12-15T21:25:45.945Z,4.06
2022-12-15T21:28:50.336Z,4.05
2022-12-15T21:31:53.231Z,3.99
2022-12-15T21:34:56.137Z,4.00
2022-12-15T21:37:58.984Z,4.06
2022-12-15T21:41:04.925Z,4.11
2022-12-15T21:44:13.776Z,4.19
2022-12-15T21:47:46.078Z,4.32
2022-12-15T21:50:48.992Z,4.48
2022-12-15T21:53:52.192Z,4.49
2022-12-15T21:56:55.158Z,4.48
2022-12-15T21:59:58.183Z,4.39
2022-12-15T22:03:01.000Z,4.28
2022-12-15T22:06:04.034Z,4.09
2022-12-15T22:09:06.794Z,4.09
2022-12-15T22:12:20.595Z,3.99
2022-12-15T22:15:23.613Z,4.10
2022-12-15T22:18:26.562Z,3.97
2022-12-15T22:21:29.414Z,4.03
2022-12-15T22:24:32.403Z,4.09
2022-12-15T22:27:35.213Z,4.06
2022-12-15T22:30:38.633Z,4.11
2022-12-15T22:33:41.393Z,4.01
2022-12-15T22:36:45.077Z,3.96
2022-12-15T22:39:52.362Z,3.86
2022-12-15T22:42:58.483Z,3.75
2022-12-15T22:46:01.541Z,3.63
2022-12-15T22:49:04.366Z,3.60
2022-12-15T22:52:19.532Z,3.68
2022-12-15T22:55:24.546Z,3.56
2022-12-15T22:58:37.443Z,3.63
2022-12-15T23:01:40.266Z,3.58
2022-12-15T23:04:43.067Z,3.56
2022-12-15T23:07:46.828Z,3.61
2022-12-15T23:11:08.420Z,3.59
2022-12-15T23:14:13.369Z,3.57
2022-12-15T23:17:16.137Z,3.65
2022-12-15T23:20:19.049Z,3.60
2022-12-15T23:23:21.931Z,3.49
2022-12-15T23:26:26.065Z,3.65
2022-12-15T23:29:29.232Z,3.66
2022-12-15T23:32:32.071Z,3.62
2022-12-15T23:35:35.818Z,3.63
2022-12-15T23:38:39.002Z,3.69
2022-12-15T23:41:41.816Z,3.58
2022-12-15T23:44:44.712Z,3.52
2022-12-15T23:47:47.523Z,3.53
2022-12-15T23:50:50.290Z,3.65
2022-12-15T23:53:53.396Z,3.69
2022-12-15T23:56:57.497Z,3.76
